Terminal Aerodrome Forecast
Issued by NWS

Current Version | Previous Version | Text Only | Print | Product List | Glossary On
Versions: 1 2 3 4 5 6 7 8 9 10 11 12 13 14 15 16 17 18 19 20 21 22 23 24
000
FTAK31 PANC 061125
TAFAHO
TAF
PAHO 061125Z 0612/0712 VRB03KT P6SM BKN120
     FM061800 11008KT P6SM VCSH SCT040 OVC080
     FM062200 12007KT P6SM -RA BKN025 OVC040=

USA.gov is the U.S. government's official web portal to all federal, state and local government web resources and services.